Bridgeton, MO (63044)

1:23 AM CDT on August 26, 2016 (GMT -0500)
Depaul Hills | | Change Station

Elev 571 ft 38.75 °N, 90.42 °W | Updated 20 seconds ago

Mostly Cloudy
Mostly Cloudy
75.0 °F
Feels Like 75 °F
N
0.0
Wind Variable Wind from WSW
Gusts 0.0 mph

Today
High -- | Low -- °F
--% Chance of Precip.
Yesterday
High -- | Low -- °F
Precip. -- in
Pressure 30.04 in
Visibility 10.0 miles
Clouds Few 5000 ft
Scattered Clouds 10000 ft
Mostly Cloudy 25000 ft
Heat Index 75 °F
Dew Point 71 °F
Humidity 87%
Rainfall 0.00 in
Snow Depth Not available.
6:25 AM 7:40 PM
Last Quarter, 38% visible
METAR KSTL 260551Z 08003KT 10SM FEW050 SCT100 BKN250 25/21 A3008 RMK AO2 TSE11 SLP172 OCNL LTGICCG DSNT NE CB DSNT NE MOV NE T02500206 10322 20250 403440239 50012
Pressure 30.04 in
Visibility 10.0 miles
Clouds Few 5000 ft
Scattered Clouds 10000 ft
Mostly Cloudy 25000 ft
Heat Index 75 °F
Dew Point 71 °F
Humidity 87%
Rainfall 0.00 in
Snow Depth Not available.
6:25 AM 7:40 PM
Last Quarter, 38% visible
METAR KSTL 260551Z 08003KT 10SM FEW050 SCT100 BKN250 25/21 A3008 RMK AO2 TSE11 SLP172 OCNL LTGICCG DSNT NE CB DSNT NE MOV NE T02500206 10322 20250 403440239 50012

10-Day Weather Forecast

Almanac

Astronomy

Aug. 26, 2016 Rise Set
Actual Time
Civil Twilight
Nautical Twilight
Astronomical Twilight
Moon
Length of Visible Light
Length of Day
Tomorrow will be .
, % of the Moon is Illuminated

Today's Extremes

State Highs State Lows

Community

WunderPhotos

Upload Photos

1,935,058 photos uploaded!

WunderBlog® & News

Nearby

Air Quality

  Air Quality AQ Index Pollutant
Not available.

Snow Depth

Station Depth Elevation

Earthquake Activity

City Distance Mag. Time & Date
Minimum magnitude displayed is 2.5.

Coastal Water Temperatures

Place Temperature

Stations

Nearby Weather Stations

Station Location Temp. Windchill Dew Point Humidity Wind Precip. Elev Updated Type
                   

Watches & Warnings

There are currently no watches in effect.